createdAt,value
2019-06-08T00:04:29.102Z,100329.84
2019-06-08T00:09:32.565Z,100325.28
2019-06-08T00:14:35.977Z,100321.03
2019-06-08T00:19:39.391Z,100337.57
2019-06-08T00:24:42.878Z,100333.10
2019-06-08T00:29:46.353Z,100303.90
2019-06-08T00:34:49.841Z,100325.05
2019-06-08T00:39:53.259Z,100334.55
2019-06-08T00:44:56.688Z,100330.70
2019-06-08T00:50:00.093Z,100352.19
2019-06-08T00:55:04.346Z,100367.73
2019-06-08T01:00:10.600Z,100362.63
2019-06-08T01:05:13.762Z,100376.36
2019-06-08T01:10:19.134Z,100370.50
2019-06-08T01:15:29.344Z,100372.04
2019-06-08T01:20:27.938Z,100366.78
2019-06-08T01:25:31.376Z,100363.67
2019-06-08T01:30:34.873Z,100372.13
2019-06-08T01:35:38.305Z,100382.80
2019-06-08T01:40:41.730Z,100384.78
2019-06-08T01:45:45.156Z,100391.68
2019-06-08T01:50:48.643Z,100377.30
2019-06-08T01:55:52.751Z,100369.66
2019-06-08T02:00:56.123Z,100371.33
2019-06-08T02:05:59.558Z,100375.14
2019-06-08T02:11:03.190Z,100372.33
2019-06-08T02:16:06.609Z,100368.19
2019-06-08T02:21:10.014Z,100364.34
2019-06-08T02:26:13.458Z,100365.66
2019-06-08T02:31:16.869Z,100374.38
2019-06-08T02:36:20.313Z,100382.00
2019-06-08T02:41:23.741Z,100383.02
2019-06-08T02:46:28.846Z,100384.28
2019-06-08T02:51:34.367Z,100379.17
2019-06-08T02:56:41.397Z,100387.28
2019-06-08T03:01:46.848Z,100398.12
2019-06-08T03:06:52.639Z,100408.34
2019-06-08T03:11:56.595Z,100424.78
2019-06-08T03:17:00.151Z,100427.09
2019-06-08T03:22:03.561Z,100418.97
2019-06-08T03:27:07.072Z,100426.50
2019-06-08T03:32:10.532Z,100445.47
2019-06-08T03:37:13.923Z,100443.85
2019-06-08T03:42:17.355Z,100432.28
2019-06-08T03:47:20.807Z,100438.02
2019-06-08T03:52:24.241Z,100436.56
2019-06-08T03:57:27.665Z,100432.97
2019-06-08T04:02:31.082Z,100426.53
2019-06-08T04:07:34.790Z,100438.34
2019-06-08T04:12:39.769Z,100442.61
2019-06-08T04:17:44.137Z,100453.48
2019-06-08T04:22:47.703Z,100459.05
2019-06-08T04:27:51.236Z,100451.58
2019-06-08T04:32:54.605Z,100459.80
2019-06-08T04:37:58.049Z,100461.30
2019-06-08T04:43:01.471Z,100469.32
2019-06-08T04:48:09.375Z,100475.14
2019-06-08T04:53:10.197Z,100488.40
2019-06-08T04:58:13.630Z,100485.70
2019-06-08T05:03:17.066Z,100500.09
2019-06-08T05:08:20.489Z,100486.97
2019-06-08T05:13:25.816Z,100506.91
2019-06-08T05:18:29.262Z,100508.34
2019-06-08T05:23:32.686Z,100517.92
2019-06-08T05:28:36.124Z,100524.95
2019-06-08T05:33:39.548Z,100525.30
2019-06-08T05:38:43.462Z,100530.09
2019-06-08T05:43:47.693Z,100537.97
2019-06-08T05:48:51.094Z,100543.81
2019-06-08T05:53:54.529Z,100541.18
2019-06-08T05:58:58.026Z,100547.56
2019-06-08T06:04:02.492Z,100561.94
2019-06-08T06:09:07.984Z,100568.06
2019-06-08T06:14:11.427Z,100578.98
2019-06-08T06:19:14.831Z,100593.55
2019-06-08T06:24:18.245Z,100602.34
2019-06-08T06:29:21.691Z,100605.25
2019-06-08T06:34:25.138Z,100616.00
2019-06-08T06:39:28.569Z,100631.57
2019-06-08T06:44:31.985Z,100642.28
2019-06-08T06:49:35.412Z,100658.25
2019-06-08T06:54:38.863Z,100655.70
2019-06-08T06:59:43.335Z,100671.77
2019-06-08T07:04:48.204Z,100682.02
2019-06-08T07:09:52.751Z,100687.05
2019-06-08T07:14:56.262Z,100683.08
2019-06-08T07:19:59.681Z,100710.31
2019-06-08T07:25:03.353Z,100709.20
2019-06-08T07:30:07.578Z,100703.17
2019-06-08T07:35:11.500Z,100715.35
2019-06-08T07:40:15.093Z,100735.55
2019-06-08T07:45:18.676Z,100747.30
2019-06-08T07:50:22.086Z,100743.72
2019-06-08T07:55:25.522Z,100756.31
2019-06-08T08:00:29.538Z,100750.34
2019-06-08T08:05:32.892Z,100750.80
2019-06-08T08:10:36.338Z,100769.70
2019-06-08T08:15:39.767Z,100764.91
2019-06-08T08:20:43.718Z,100767.06
2019-06-08T08:25:47.485Z,100768.55
2019-06-08T08:30:52.208Z,100776.63
2019-06-08T08:35:58.663Z,100777.59
2019-06-08T08:41:07.181Z,100773.83
2019-06-08T08:46:07.696Z,100780.24
2019-06-08T08:51:11.291Z,100790.84
2019-06-08T08:56:14.742Z,100790.09
2019-06-08T09:01:20.550Z,100800.00
2019-06-08T09:06:23.290Z,100809.91
2019-06-08T09:11:28.949Z,100812.97
2019-06-08T09:16:31.949Z,100790.47
2019-06-08T09:21:35.376Z,100811.56
2019-06-08T09:26:38.831Z,100822.17
2019-06-08T09:31:42.302Z,100827.08
2019-06-08T09:36:47.894Z,100850.95
2019-06-08T09:41:53.707Z,100865.09
2019-06-08T09:47:02.759Z,100849.25
2019-06-08T09:52:03.510Z,100859.41
2019-06-08T09:57:09.138Z,100879.48
2019-06-08T10:02:13.085Z,100884.69
2019-06-08T10:07:18.661Z,100893.64
2019-06-08T10:12:22.607Z,100886.41
2019-06-08T10:17:27.910Z,100898.73
2019-06-08T10:22:31.155Z,100902.19
2019-06-08T10:27:34.626Z,100909.02
2019-06-08T10:32:38.330Z,100920.84
2019-06-08T10:37:41.896Z,100907.42
2019-06-08T10:42:48.153Z,100911.23
2019-06-08T10:47:50.461Z,100930.97
2019-06-08T10:52:53.875Z,100936.38
2019-06-08T10:57:58.112Z,100945.94
2019-06-08T11:03:03.362Z,100947.89
2019-06-08T11:08:12.983Z,100954.95
2019-06-08T11:13:14.993Z,100960.06
2019-06-08T11:18:18.535Z,100972.44
2019-06-08T11:23:22.089Z,100965.80
2019-06-08T11:28:28.101Z,100963.19
2019-06-08T11:33:30.637Z,100969.20
2019-06-08T11:38:34.066Z,100975.77
2019-06-08T11:43:38.146Z,100980.38
2019-06-08T11:48:41.813Z,100980.88
2019-06-08T11:53:48.214Z,100982.16
2019-06-08T11:58:52.649Z,100987.98
2019-06-08T12:03:57.954Z,101001.00
2019-06-08T12:09:02.629Z,100994.08
2019-06-08T12:14:09.238Z,100996.70
2019-06-08T12:19:15.057Z,101008.17
2019-06-08T12:24:16.676Z,100997.88
2019-06-08T12:29:20.062Z,101017.03
2019-06-08T12:34:23.565Z,101007.54
2019-06-08T12:39:28.153Z,101010.55
2019-06-08T12:44:31.695Z,101010.31
2019-06-08T12:49:35.207Z,101027.16
2019-06-08T12:54:38.643Z,101025.77
2019-06-08T12:59:45.362Z,101034.37
2019-06-08T13:04:48.098Z,101029.87
2019-06-08T13:09:51.616Z,101028.61
2019-06-08T13:14:58.068Z,101047.81
2019-06-08T13:20:01.054Z,101040.06
2019-06-08T13:25:19.121Z,101037.89
2019-06-08T13:30:17.429Z,101042.16
2019-06-08T13:35:20.834Z,101034.41
2019-06-08T13:40:23.992Z,101032.03
2019-06-08T13:45:27.916Z,101040.72
2019-06-08T13:50:31.480Z,101033.53
2019-06-08T13:55:48.612Z,101033.53
2019-06-08T14:00:40.131Z,101037.16
2019-06-08T14:05:43.548Z,101054.23
2019-06-08T14:10:48.249Z,101042.22
2019-06-08T14:15:51.838Z,101042.22
2019-06-08T14:20:58.490Z,101047.80
2019-06-08T14:26:01.115Z,101048.72
2019-06-08T14:31:04.528Z,101051.04
2019-06-08T14:36:08.104Z,101049.94
2019-06-08T14:41:11.541Z,101051.17
2019-06-08T14:46:14.959Z,101049.96
2019-06-08T14:51:18.755Z,101048.86
2019-06-08T14:56:22.852Z,101055.34
2019-06-08T15:01:29.379Z,101065.92
2019-06-08T15:06:34.169Z,101055.91
2019-06-08T15:11:38.111Z,101060.03
2019-06-08T15:16:41.951Z,101051.02
2019-06-08T15:21:45.426Z,101059.20
2019-06-08T15:26:49.046Z,101049.88
2019-06-08T15:31:52.684Z,101051.05
2019-06-08T15:36:57.555Z,101052.92
2019-06-08T15:42:01.331Z,101055.25
2019-06-08T15:47:04.743Z,101063.28
2019-06-08T15:52:08.158Z,101070.60
2019-06-08T15:57:11.576Z,101074.06
2019-06-08T16:02:14.990Z,101070.91
2019-06-08T16:07:18.443Z,101083.69
2019-06-08T16:12:21.874Z,101090.04
2019-06-08T16:17:25.425Z,101102.00
2019-06-08T16:22:29.553Z,101093.16
2019-06-08T16:27:33.897Z,101102.59
2019-06-08T16:32:37.263Z,101089.72
2019-06-08T16:37:40.689Z,101105.16
2019-06-08T16:42:44.376Z,101133.07
2019-06-08T16:53:08.769Z,101159.00
2019-06-08T16:58:12.210Z,101167.03
2019-06-08T17:03:15.652Z,101181.86
2019-06-08T17:08:19.075Z,101206.72
2019-06-08T17:13:23.771Z,101220.66
2019-06-08T17:18:27.189Z,101228.87
2019-06-08T17:23:32.325Z,101217.34
2019-06-08T17:28:37.120Z,101217.34
2019-06-08T17:33:41.502Z,101212.77
2019-06-08T17:38:44.922Z,101227.56
2019-06-08T17:43:48.354Z,101249.38
2019-06-08T17:48:51.851Z,101252.67
2019-06-08T17:53:55.288Z,101259.59
2019-06-08T17:58:58.710Z,101250.73
2019-06-08T18:04:02.146Z,101250.05
2019-06-08T18:09:07.862Z,101249.82
2019-06-08T18:14:11.380Z,101268.27
2019-06-08T18:19:29.170Z,101238.70
2019-06-08T18:24:32.587Z,101231.64
2019-06-08T18:29:39.150Z,101243.06
2019-06-08T18:34:42.150Z,101240.39
2019-06-08T18:39:49.066Z,101258.10
2019-06-08T18:44:51.468Z,101255.92
2019-06-08T18:49:57.296Z,101266.22
2019-06-08T18:55:00.044Z,101274.42
2019-06-08T19:00:10.984Z,101277.23
2019-06-08T19:05:10.269Z,101274.53
2019-06-08T19:10:16.751Z,101278.69
2019-06-08T19:15:23.261Z,101298.44
2019-06-08T19:20:28.451Z,101297.45
2019-06-08T19:25:31.978Z,101295.16
2019-06-08T19:30:37.909Z,101300.44
2019-06-08T19:35:41.128Z,101300.47
2019-06-08T19:40:46.119Z,101303.33
2019-06-08T19:45:51.925Z,101312.16
2019-06-08T19:50:54.792Z,101320.52
2019-06-08T19:55:58.230Z,101325.19
2019-06-08T20:01:01.766Z,101328.87
2019-06-08T20:06:06.176Z,101338.73
2019-06-08T20:11:09.680Z,101345.90
2019-06-08T20:16:13.106Z,101342.36
2019-06-08T20:21:18.130Z,101349.97
2019-06-08T20:26:21.656Z,101355.48
2019-06-08T20:31:26.930Z,101355.29
2019-06-08T20:36:30.389Z,101367.45
2019-06-08T20:41:33.809Z,101359.23
2019-06-08T20:46:37.792Z,101369.66
2019-06-08T20:51:42.468Z,101374.59
2019-06-08T20:56:47.897Z,101370.44
2019-06-08T21:01:52.645Z,101384.61
2019-06-08T21:06:57.344Z,101380.72
2019-06-08T21:12:00.906Z,101376.48
2019-06-08T21:17:04.348Z,101376.14
2019-06-08T21:22:08.299Z,101382.80
2019-06-08T21:27:11.800Z,101382.06
2019-06-08T21:32:17.595Z,101381.91
2019-06-08T21:37:20.341Z,101383.78
2019-06-08T21:42:23.857Z,101391.92
2019-06-08T21:47:27.278Z,101382.91
2019-06-08T21:52:30.690Z,101384.80
2019-06-08T21:57:36.972Z,101392.27
2019-06-08T22:02:40.116Z,101394.09
2019-06-08T22:07:43.599Z,101402.16
2019-06-08T22:12:48.298Z,101402.58
2019-06-08T22:17:53.120Z,101402.61
2019-06-08T22:22:59.253Z,101409.30
2019-06-08T22:28:01.788Z,101413.26
2019-06-08T22:33:05.217Z,101417.70
2019-06-08T22:38:08.745Z,101414.27
2019-06-08T22:48:33.267Z,101424.97
2019-06-08T22:53:38.339Z,101426.72
2019-06-08T22:58:41.965Z,101428.50
2019-06-08T23:03:47.445Z,101435.70
2019-06-08T23:08:50.555Z,101441.95
2019-06-08T23:13:54.983Z,101441.61
2019-06-08T23:18:59.992Z,101443.02
2019-06-08T23:24:04.128Z,101440.48
2019-06-08T23:29:09.536Z,101439.67
2019-06-08T23:34:12.654Z,101441.91
2019-06-08T23:39:17.992Z,101441.52
2019-06-08T23:44:21.203Z,101448.57
2019-06-08T23:49:24.634Z,101440.75
2019-06-08T23:54:28.150Z,101446.11
2019-06-08T23:59:31.547Z,101448.84
